Thomson Dream — 9HA2381 — position and weather

sailwx.info

Track history (hours):
 
Tides and Currents Weather Stations Pressure Air Temp Water Temp Dewpoint Dewpoint Depression Visibility Wind Speed Wind Dir Waves Ship Positions

Thomson Dream

Last reported at 2014-Jul-25 20:27 UTC. Time now 2014-Jul-25 20:36 UTC.
Position N 38°18' E 000°59'.

Length 243 m; draft 7.6 m.

Type: Ship. MMSI: 248480975.

Date/timePositionNaut miles runAvg speedWind from/ knotsBaromVisibWave heightAir tempDewpointWater temp
2014-Jul-25 20:27N 38°18' E 000°59'1213.1
2014-Jul-25 19:33N 38°11' E 000°46'1414.0
2014-Jul-25 18:33N 38°04' E 000°31'1817.5
2014-Jul-25 17:33N 37°55' E 000°12'1717.1
2014-Jul-25 16:33N 37°45' W 000°06'1413.8
2014-Jul-25 15:33N 37°38' W 000°20'1312.6
2014-Jul-25 14:33N 37°32' W 000°34'37 3.4
2014-Jul-25 03:30N 37°16' W 001°17'1111.6
2014-Jul-25 02:31N 37°08' W 001°27'9 9.2
2014-Jul-25 01:33N 37°01' W 001°34'1110.7
2014-Jul-25 00:33N 36°52' W 001°41'1211.3
2014-Jul-24 23:31N 36°43' W 001°50'2116.2
2014-Jul-24 22:13N 36°26' W 002°06'1116.0
2014-Jul-24 21:31N 36°22' W 002°19'151 6.6
2014-Jul-23 22:33N 35°58' W 005°24'3916.0
2014-Jul-23 20:07N 35°54' W 006°12'38 3.9
2014-Jul-23 10:15N 36°32' W 006°17'35 5.9
2014-Jul-23 04:12N 36°01' W 006°38'1218.4
2014-Jul-23 03:33N 35°50' W 006°44'1818.0
2014-Jul-23 02:33N 35°33' W 006°50'1817.9
2014-Jul-23 01:33N 35°15' W 006°56'1817.5
2014-Jul-23 00:33N 34°59' W 007°03'1717.3
2014-Jul-22 23:33N 34°42' W 007°10'111 3.5
2014-Jul-21 16:05N 35°59' W 005°31'713.2
2014-Jul-21 15:32N 36°04' W 005°24'257 8.6
2014-Jul-20 09:33N 37°30' W 000°22'12215.2
2014-Jul-20 01:33N 38°41' E 001°44'2115.7
2014-Jul-20 00:14N 38°57' E 002°00'1116.0
2014-Jul-19 23:33N 39°05' E 002°10'1616.1
2014-Jul-19 22:33N 39°17' E 002°24'1616.4
2014-Jul-19 21:33N 39°30' E 002°37'3 3.3
2014-Jul-19 20:33N 39°33' E 002°38'0 0.0
2014-Jul-19 19:30N 39°33' E 002°38'0 0.0
2014-Jul-19 18:33N 39°33' E 002°38'0 0.0
2014-Jul-19 17:33N 39°33' E 002°38'0 0.0
2014-Jul-19 16:33N 39°33' E 002°38'0 0.0
2014-Jul-19 15:33N 39°33' E 002°38'0 0.0
2014-Jul-19 14:33N 39°33' E 002°38'0 0.0
2014-Jul-19 13:33N 39°33' E 002°38'0 0.0
2014-Jul-19 12:33N 39°33' E 002°38'0 0.0
2014-Jul-19 11:33N 39°33' E 002°38'0 0.0
2014-Jul-19 10:33N 39°33' E 002°38'0 0.0
2014-Jul-19 09:33N 39°33' E 002°38'0 0.0
2014-Jul-19 08:33N 39°33' E 002°38'0 0.0
2014-Jul-19 07:33N 39°33' E 002°38'0 0.0
2014-Jul-19 06:33N 39°33' E 002°38'0 0.0
2014-Jul-19 05:33N 39°33' E 002°38'0 0.0
2014-Jul-19 04:33N 39°33' E 002°38'0 0.5
2014-Jul-19 03:34N 39°33' E 002°38'9 9.4
2014-Jul-19 02:33N 39°26' E 002°31'1111.1
2014-Jul-19 01:33N 39°30' E 002°18'1211.8
2014-Jul-19 00:33N 39°41' E 002°14'1312.8
2014-Jul-18 23:33N 39°54' E 002°14'1313.5
2014-Jul-18 22:33N 40°07' E 002°14'1313.3
2014-Jul-18 21:33N 40°21' E 002°13'1313.0
2014-Jul-18 20:33N 40°33' E 002°14'1313.1
2014-Jul-18 19:33N 40°47' E 002°13'1313.2
2014-Jul-18 18:33N 40°60' E 002°13'1313.4
2014-Jul-18 17:33N 41°13' E 002°13'9 8.5
2014-Jul-18 16:28N 41°22' E 002°11'0 0.0
2014-Jul-18 15:28N 41°22' E 002°11'0 0.0
2014-Jul-18 14:31N 41°22' E 002°11'0 0.0
2014-Jul-18 13:19N 41°22' E 002°11'0 0.0
2014-Jul-18 12:28N 41°22' E 002°11'0 0.0
2014-Jul-18 11:28N 41°22' E 002°11'0 0.0
2014-Jul-18 10:22N 41°22' E 002°11'0 0.0
2014-Jul-18 09:28N 41°22' E 002°11'0 0.0
2014-Jul-18 08:31N 41°22' E 002°11'0 0.0
2014-Jul-18 07:28N 41°22' E 002°11'0 0.0
2014-Jul-18 06:31N 41°22' E 002°11'6 6.1
2014-Jul-18 05:33N 41°21' E 002°19'1413.6
2014-Jul-18 04:31N 41°27' E 002°36'1212.4
2014-Jul-18 03:33N 41°33' E 002°49'1413.0
2014-Jul-18 02:30N 41°41' E 003°05'1111.4
2014-Jul-18 01:33N 41°47' E 003°17'1312.9
2014-Jul-18 00:32N 41°53' E 003°32'1312.9
2014-Jul-17 23:33N 41°59' E 003°47'1312.8
2014-Jul-17 22:33N 42°05' E 004°02'1615.8
2014-Jul-17 21:33N 42°13' E 004°20'1717.0
2014-Jul-17 20:32N 42°22' E 004°41'1717.5
2014-Jul-17 19:34N 42°32' E 004°60'1817.6
2014-Jul-17 18:33N 42°42' E 005°19'1717.4
2014-Jul-17 17:33N 42°52' E 005°39'1615.6
2014-Jul-17 16:33N 43°00' E 005°57'7 5.8
2014-Jul-17 15:23N 43°07' E 005°56'0 0.0
2014-Jul-17 14:26N 43°07' E 005°56'0 0.0
2014-Jul-17 13:29N 43°07' E 005°56'0 0.0
2014-Jul-17 12:32N 43°07' E 005°56'0 0.0
2014-Jul-17 11:32N 43°07' E 005°56'0 0.0
2014-Jul-17 10:23N 43°07' E 005°56'0 0.0
2014-Jul-17 09:29N 43°07' E 005°56'0 0.0
2014-Jul-17 08:29N 43°07' E 005°56'0 0.0
2014-Jul-17 07:29N 43°07' E 005°56'0 0.0
2014-Jul-17 06:33N 43°07' E 005°56'4 3.6
2014-Jul-17 05:33N 43°04' E 005°59'1110.6
2014-Jul-17 04:33N 42°57' E 006°09'1313.4
2014-Jul-17 03:33N 42°58' E 006°27'1414.2
2014-Jul-17 02:33N 43°05' E 006°44'1414.2
2014-Jul-17 01:33N 43°12' E 007°01'1413.7
2014-Jul-17 00:34N 43°20' E 007°16'1313.3
2014-Jul-16 23:33N 43°29' E 007°30'1312.9
2014-Jul-16 22:33N 43°35' E 007°46'1412.1
2014-Jul-16 21:25N 43°42' E 008°02'910.2
2014-Jul-16 20:33N 43°47' E 008°12'1212.3
2014-Jul-16 19:33N 43°53' E 008°27'1110.9
2014-Jul-16 18:34N 43°59' E 008°40'1312.7
2014-Jul-16 17:34N 44°06' E 008°54'1312.5
2014-Jul-16 16:33N 44°13' E 009°09'7 1.7
2014-Jul-16 12:05N 44°20' E 009°14'0 0.1
2014-Jul-16 11:20N 44°20' E 009°14'0 0.0
2014-Jul-16 10:20N 44°20' E 009°14'0 0.0
2014-Jul-16 08:32N 44°20' E 009°14'7 1.3
2014-Jul-16 03:33N 44°13' E 009°14'2 2.3
2014-Jul-16 02:33N 44°11' E 009°12'0 0.3
2014-Jul-16 01:33N 44°11' E 009°12'0 0.4
2014-Jul-16 00:33N 44°11' E 009°13'3 3.5
2014-Jul-15 23:33N 44°07' E 009°14'1110.9
2014-Jul-15 22:33N 43°58' E 009°23'1110.9
2014-Jul-15 21:33N 43°50' E 009°31'1111.0
2014-Jul-15 20:33N 43°41' E 009°40'  
Track history (hours):
 
Tides and Currents Weather Stations Pressure Air Temp Water Temp Dewpoint Dewpoint Depression Visibility Wind Speed Wind Dir Waves Ship Positions

Thomson Dream

Last reported at 2014-Jul-25 20:27 UTC. Time now 2014-Jul-25 20:36 UTC.
Position N 38°18' E 000°59'.

Length 243 m; draft 7.6 m.

Type: Ship. MMSI: 248480975.

Date/timePositionNaut miles runAvg speedWind from/ knotsBaromVisibWave heightAir tempDewpointWater temp
2014-Jul-25 20:27N 38°18' E 000°59'1213.1
2014-Jul-25 19:33N 38°11' E 000°46'1414.0
2014-Jul-25 18:33N 38°04' E 000°31'1817.5
2014-Jul-25 17:33N 37°55' E 000°12'1717.1
2014-Jul-25 16:33N 37°45' W 000°06'1413.8
2014-Jul-25 15:33N 37°38' W 000°20'1312.6
2014-Jul-25 14:33N 37°32' W 000°34'37 3.4
2014-Jul-25 03:30N 37°16' W 001°17'1111.6
2014-Jul-25 02:31N 37°08' W 001°27'9 9.2
2014-Jul-25 01:33N 37°01' W 001°34'1110.7
2014-Jul-25 00:33N 36°52' W 001°41'1211.3
2014-Jul-24 23:31N 36°43' W 001°50'2116.2
2014-Jul-24 22:13N 36°26' W 002°06'1116.0
2014-Jul-24 21:31N 36°22' W 002°19'151 6.6
2014-Jul-23 22:33N 35°58' W 005°24'3916.0
2014-Jul-23 20:07N 35°54' W 006°12'38 3.9
2014-Jul-23 10:15N 36°32' W 006°17'35 5.9
2014-Jul-23 04:12N 36°01' W 006°38'1218.4
2014-Jul-23 03:33N 35°50' W 006°44'1818.0
2014-Jul-23 02:33N 35°33' W 006°50'1817.9
2014-Jul-23 01:33N 35°15' W 006°56'1817.5
2014-Jul-23 00:33N 34°59' W 007°03'1717.3
2014-Jul-22 23:33N 34°42' W 007°10'111 3.5
2014-Jul-21 16:05N 35°59' W 005°31'713.2
2014-Jul-21 15:32N 36°04' W 005°24'257 8.6
2014-Jul-20 09:33N 37°30' W 000°22'12215.2
2014-Jul-20 01:33N 38°41' E 001°44'2115.7
2014-Jul-20 00:14N 38°57' E 002°00'1116.0
2014-Jul-19 23:33N 39°05' E 002°10'1616.1
2014-Jul-19 22:33N 39°17' E 002°24'1616.4
2014-Jul-19 21:33N 39°30' E 002°37'3 3.3
2014-Jul-19 20:33N 39°33' E 002°38'0 0.0
2014-Jul-19 19:30N 39°33' E 002°38'0 0.0
2014-Jul-19 18:33N 39°33' E 002°38'0 0.0
2014-Jul-19 17:33N 39°33' E 002°38'0 0.0
2014-Jul-19 16:33N 39°33' E 002°38'0 0.0
2014-Jul-19 15:33N 39°33' E 002°38'0 0.0
2014-Jul-19 14:33N 39°33' E 002°38'0 0.0
2014-Jul-19 13:33N 39°33' E 002°38'0 0.0
2014-Jul-19 12:33N 39°33' E 002°38'0 0.0
2014-Jul-19 11:33N 39°33' E 002°38'0 0.0
2014-Jul-19 10:33N 39°33' E 002°38'0 0.0
2014-Jul-19 09:33N 39°33' E 002°38'0 0.0
2014-Jul-19 08:33N 39°33' E 002°38'0 0.0
2014-Jul-19 07:33N 39°33' E 002°38'0 0.0
2014-Jul-19 06:33N 39°33' E 002°38'0 0.0
2014-Jul-19 05:33N 39°33' E 002°38'0 0.0
2014-Jul-19 04:33N 39°33' E 002°38'0 0.5
2014-Jul-19 03:34N 39°33' E 002°38'9 9.4
2014-Jul-19 02:33N 39°26' E 002°31'1111.1
2014-Jul-19 01:33N 39°30' E 002°18'1211.8
2014-Jul-19 00:33N 39°41' E 002°14'1312.8
2014-Jul-18 23:33N 39°54' E 002°14'1313.5
2014-Jul-18 22:33N 40°07' E 002°14'1313.3
2014-Jul-18 21:33N 40°21' E 002°13'1313.0
2014-Jul-18 20:33N 40°33' E 002°14'1313.1
2014-Jul-18 19:33N 40°47' E 002°13'1313.2
2014-Jul-18 18:33N 40°60' E 002°13'1313.4
2014-Jul-18 17:33N 41°13' E 002°13'9 8.5
2014-Jul-18 16:28N 41°22' E 002°11'0 0.0
2014-Jul-18 15:28N 41°22' E 002°11'0 0.0
2014-Jul-18 14:31N 41°22' E 002°11'0 0.0
2014-Jul-18 13:19N 41°22' E 002°11'0 0.0
2014-Jul-18 12:28N 41°22' E 002°11'0 0.0
2014-Jul-18 11:28N 41°22' E 002°11'0 0.0
2014-Jul-18 10:22N 41°22' E 002°11'0 0.0
2014-Jul-18 09:28N 41°22' E 002°11'0 0.0
2014-Jul-18 08:31N 41°22' E 002°11'0 0.0
2014-Jul-18 07:28N 41°22' E 002°11'0 0.0
2014-Jul-18 06:31N 41°22' E 002°11'6 6.1
2014-Jul-18 05:33N 41°21' E 002°19'1413.6
2014-Jul-18 04:31N 41°27' E 002°36'1212.4
2014-Jul-18 03:33N 41°33' E 002°49'1413.0
2014-Jul-18 02:30N 41°41' E 003°05'1111.4
2014-Jul-18 01:33N 41°47' E 003°17'1312.9
2014-Jul-18 00:32N 41°53' E 003°32'1312.9
2014-Jul-17 23:33N 41°59' E 003°47'1312.8
2014-Jul-17 22:33N 42°05' E 004°02'1615.8
2014-Jul-17 21:33N 42°13' E 004°20'1717.0
2014-Jul-17 20:32N 42°22' E 004°41'1717.5
2014-Jul-17 19:34N 42°32' E 004°60'1817.6
2014-Jul-17 18:33N 42°42' E 005°19'1717.4
2014-Jul-17 17:33N 42°52' E 005°39'1615.6
2014-Jul-17 16:33N 43°00' E 005°57'7 5.8
2014-Jul-17 15:23N 43°07' E 005°56'0 0.0
2014-Jul-17 14:26N 43°07' E 005°56'0 0.0
2014-Jul-17 13:29N 43°07' E 005°56'0 0.0
2014-Jul-17 12:32N 43°07' E 005°56'0 0.0
2014-Jul-17 11:32N 43°07' E 005°56'0 0.0
2014-Jul-17 10:23N 43°07' E 005°56'0 0.0
2014-Jul-17 09:29N 43°07' E 005°56'0 0.0
2014-Jul-17 08:29N 43°07' E 005°56'0 0.0
2014-Jul-17 07:29N 43°07' E 005°56'0 0.0
2014-Jul-17 06:33N 43°07' E 005°56'4 3.6
2014-Jul-17 05:33N 43°04' E 005°59'1110.6
2014-Jul-17 04:33N 42°57' E 006°09'1313.4
2014-Jul-17 03:33N 42°58' E 006°27'1414.2
2014-Jul-17 02:33N 43°05' E 006°44'1414.2
2014-Jul-17 01:33N 43°12' E 007°01'1413.7
2014-Jul-17 00:34N 43°20' E 007°16'1313.3
2014-Jul-16 23:33N 43°29' E 007°30'1312.9
2014-Jul-16 22:33N 43°35' E 007°46'1412.1
2014-Jul-16 21:25N 43°42' E 008°02'910.2
2014-Jul-16 20:33N 43°47' E 008°12'1212.3
2014-Jul-16 19:33N 43°53' E 008°27'1110.9
2014-Jul-16 18:34N 43°59' E 008°40'1312.7
2014-Jul-16 17:34N 44°06' E 008°54'1312.5
2014-Jul-16 16:33N 44°13' E 009°09'7 1.7
2014-Jul-16 12:05N 44°20' E 009°14'0 0.1
2014-Jul-16 11:20N 44°20' E 009°14'0 0.0
2014-Jul-16 10:20N 44°20' E 009°14'0 0.0
2014-Jul-16 08:32N 44°20' E 009°14'7 1.3
2014-Jul-16 03:33N 44°13' E 009°14'2 2.3
2014-Jul-16 02:33N 44°11' E 009°12'0 0.3
2014-Jul-16 01:33N 44°11' E 009°12'0 0.4
2014-Jul-16 00:33N 44°11' E 009°13'3 3.5
2014-Jul-15 23:33N 44°07' E 009°14'1110.9
2014-Jul-15 22:33N 43°58' E 009°23'1110.9
2014-Jul-15 21:33N 43°50' E 009°31'1111.0
2014-Jul-15 20:33N 43°41' E 009°40'  

Dump ship's entire track history